Time;durP1;ratioP1;P1;durP2;ratioP2;P2;SDS_P1;SDS_P2;PMS_P1;PMS_P2;Temp;Humidity;BMP_temperature;BMP_pressure;BME280_temperature;BME280_humidity;BME280_pressure;Samples;Min_cycle;Max_cycle;Signal;HPM_P1;HPM_P2
2021/11/09 00:00:42;;;;;;;;;;;;;;;;;;5036064;28;19920;-80
2021/11/09 00:03:10;;;;;;;;;;;;;;;;;;5053041;28;19946;-80
2021/11/09 00:05:45;;;;;;;;;;;;;;;;;;5036765;28;20336;-80
2021/11/09 00:08:15;;;;;;;;;;;;;;;;;;5020625;28;20387;-81
2021/11/09 00:10:43;;;;;;;;;;;;;;;;;;5020172;28;20015;-80
2021/11/09 00:13:08;;;;;;;;;;;;;;;;;;5052294;28;19917;-81
2021/11/09 00:15:34;;;;;;;;;;;;;;;;;;5035709;28;19917;-81
2021/11/09 00:18:00;;;;;;;;;;;;;;;;;;5035728;28;19923;-80
2021/11/09 00:20:26;;;;;;;;;;;;;;;;;;5020414;28;19921;-81
2021/11/09 00:22:52;;;;;;;;;;;;;;;;;;5032419;28;19924;-80
2021/11/09 00:25:18;;;;;;;;;;;;;;;;;;5032298;28;19921;-81
2021/11/09 00:27:43;;;;;;;;;;;;;;;;;;5015419;28;19924;-81
2021/11/09 00:30:09;;;;;;;;;;;;;;;;;;5032339;28;19917;-80
2021/11/09 00:32:35;;;;;;;;;;;;;;;;;;5015418;28;19925;-80
2021/11/09 00:35:00;;;;;;;;;;;;;;;;;;5048270;28;19920;-81
2021/11/09 00:37:26;;;;;;;;;;;;;;;;;;5052411;28;19966;-80
2021/11/09 00:39:52;;;;;;;;;;;;;;;;;;5052107;28;19912;-81
2021/11/09 00:42:17;;;;;;;;;;;;;;;;;;5051912;28;20294;-81
2021/11/09 00:44:43;;;;;;;;;;;;;;;;;;5051855;28;19913;-80
2021/11/09 00:47:08;;;;;;;;;;;;;;;;;;5051399;28;19917;-80
2021/11/09 00:49:33;;;;;;;;;;;;;;;;;;5018590;28;19912;-81
2021/11/09 00:51:59;;;;;;;;;;;;;;;;;;5035218;28;20011;-81
2021/11/09 00:54:24;;;;;;;;;;;;;;;;;;5019059;28;20018;-80
2021/11/09 00:56:49;;;;;;;;;;;;;;;;;;5051409;28;19916;-81
2021/11/09 00:59:15;;;;;;;;;;;;;;;;;;5035060;28;19924;-81
2021/11/09 01:01:40;;;;;;;;;;;;;;;;;;5018691;28;20019;-80
2021/11/09 01:04:06;;;;;;;;;;;;;;;;;;5031225;28;19925;-80
2021/11/09 01:06:31;;;;;;;;;;;;;;;;;;5031074;28;19920;-80
2021/11/09 01:08:58;;;;;;;;;;;;;;;;;;5022464;28;20022;-81
2021/11/09 01:11:24;;;;;;;;;;;;;;;;;;5051326;28;20011;-80
2021/11/09 01:13:49;;;;;;;;;;;;;;;;;;5034729;28;19995;-80
2021/11/09 01:16:15;;;;;;;;;;;;;;;;;;5051713;28;19948;-80
2021/11/09 01:18:45;;;;;;;;;;;;;;;;;;5034563;28;19963;-80
2021/11/09 01:21:15;;;;;;;;;;;;;;;;;;5051744;28;20026;-80
2021/11/09 01:23:41;;;;;;;;;;;;;;;;;;5051324;28;19917;-80
2021/11/09 01:26:07;;;;;;;;;;;;;;;;;;5051136;28;19917;-80
2021/11/09 01:28:32;;;;;;;;;;;;;;;;;;5047234;28;20004;-81
2021/11/09 01:30:59;;;;;;;;;;;;;;;;;;5017429;28;20011;-81
2021/11/09 01:33:24;;;;;;;;;;;;;;;;;;5031580;28;19921;-80
2021/11/09 01:35:49;;;;;;;;;;;;;;;;;;5031626;28;19917;-81
2021/11/09 01:38:15;;;;;;;;;;;;;;;;;;5031218;28;19913;-81
2021/11/09 01:40:40;;;;;;;;;;;;;;;;;;5014394;28;20383;-81
2021/11/09 01:43:06;;;;;;;;;;;;;;;;;;5050718;28;19963;-81
2021/11/09 01:45:31;;;;;;;;;;;;;;;;;;5034022;28;19913;-80
2021/11/09 01:47:56;;;;;;;;;;;;;;;;;;5050444;28;19912;-81
2021/11/09 01:50:24;;;;;;;;;;;;;;;;;;5050957;28;20441;-80
2021/11/09 01:52:49;;;;;;;;;;;;;;;;;;5034353;28;19963;-81
2021/11/09 01:55:16;;;;;;;;;;;;;;;;;;5050581;28;19948;-80
2021/11/09 01:57:42;;;;;;;;;;;;;;;;;;5050202;28;20377;-80
2021/11/09 02:00:10;;;;;;;;;;;;;;;;;;5017311;28;19960;-81
2021/11/09 02:02:35;;;;;;;;;;;;;;;;;;5034386;28;20280;-81
2021/11/09 02:05:00;;;;;;;;;;;;;;;;;;5033801;28;20011;-80
2021/11/09 02:07:26;;;;;;;;;;;;;;;;;;5050926;28;20286;-81
2021/11/09 02:09:51;;;;;;;;;;;;;;;;;;5050768;28;19962;-80
2021/11/09 02:12:16;;;;;;;;;;;;;;;;;;5050287;28;20362;-81
2021/11/09 02:14:42;;;;;;;;;;;;;;;;;;5050318;28;19996;-80
2021/11/09 02:17:08;;;;;;;;;;;;;;;;;;5036351;28;19916;-80
2021/11/09 02:19:33;;;;;;;;;;;;;;;;;;5054403;28;20371;-80
2021/11/09 02:21:59;;;;;;;;;;;;;;;;;;5048574;28;19921;-81
2021/11/09 02:24:24;;;;;;;;;;;;;;;;;;5002127;28;19924;-80
2021/11/09 02:26:50;;;;;;;;;;;;;;;;;;5007242;28;20293;-80
2021/11/09 02:29:15;;;;;;;;;;;;;;;;;;5054587;28;19917;-80
2021/11/09 02:31:40;;;;;;;;;;;;;;;;;;5037546;28;19917;-80
2021/11/09 02:34:06;;;;;;;;;;;;;;;;;;5054340;28;19921;-80
2021/11/09 02:36:31;;;;;;;;;;;;;;;;;;5054299;28;19917;-80
2021/11/09 02:38:57;;;;;;;;;;;;;;;;;;5054265;28;19917;-80
2021/11/09 02:41:23;;;;;;;;;;;;;;;;;;5053965;28;19917;-81
2021/11/09 02:43:49;;;;;;;;;;;;;;;;;;5034177;28;19928;-80
2021/11/09 02:49:05;;;;;;;;;;;;;;;;;;5049759;28;19924;-80
2021/11/09 02:51:44;;;;;;;;;;;;;;;;;;5050770;28;20327;-80
2021/11/09 02:54:21;;;;;;;;;;;;;;;;;;5034675;28;19939;-81
2021/11/09 03:07:31;;;;;;;;;;;;;;;;;;5053711;28;20285;-80
2021/11/09 03:10:04;;;;;;;;;;;;;;;;;;5038821;28;20389;-81
2021/11/09 03:12:30;;;;;;;;;;;;;;;;;;5034367;28;19970;-81
2021/11/09 03:14:56;;;;;;;;;;;;;;;;;;5050153;28;20007;-80
2021/11/09 03:17:23;;;;;;;;;;;;;;;;;;5033965;28;20016;-80
2021/11/09 03:19:53;;;;;;;;;;;;;;;;;;5037095;28;19917;-80
2021/11/09 03:46:41;;;;;;;;;;;;;;;;;;5052854;28;19913;-80
2021/11/09 03:49:07;;;;;;;;;;;;;;;;;;5019653;28;20302;-81
2021/11/09 03:51:33;;;;;;;;;;;;;;;;;;5052594;28;19923;-80
2021/11/09 03:54:01;;;;;;;;;;;;;;;;;;5043798;28;20333;-80
2021/11/09 03:56:38;;;;;;;;;;;;;;;;;;5000323;28;19913;-80
2021/11/09 03:59:07;;;;;;;;;;;;;;;;;;5026664;28;20399;-80
2021/11/09 04:01:42;;;;;;;;;;;;;;;;;;5015036;28;20287;-81
2021/11/09 04:06:43;;;;;;;;;;;;;;;;;;5048635;28;20052;-80
2021/11/09 04:09:23;;;;;;;;;;;;;;;;;;5032504;28;20391;-80
2021/11/09 04:12:24;;;;;;;;;;;;;;;;;;5032041;28;20067;-80
2021/11/09 04:14:47;;;;;;;;;;;;;;;;;;5031265;28;19920;-80
2021/11/09 04:26:04;;;;;;;;;;;;;;;;;;5034668;28;19953;-81
2021/11/09 05:10:31;;;;;;;;;;;;;;;;;;5051233;28;19999;-81
2021/11/09 05:12:57;;;;;;;;;;;;;;;;;;5034861;28;19912;-81
2021/11/09 05:15:22;;;;;;;;;;;;;;;;;;5050872;28;19952;-81
2021/11/09 05:17:48;;;;;;;;;;;;;;;;;;5051229;28;20460;-81
2021/11/09 05:20:13;;;;;;;;;;;;;;;;;;5034798;28;20035;-81
2021/11/09 05:22:38;;;;;;;;;;;;;;;;;;5018006;28;19977;-81
2021/11/09 05:25:04;;;;;;;;;;;;;;;;;;5050927;28;20295;-81
2021/11/09 05:27:30;;;;;;;;;;;;;;;;;;5050857;28;20071;-81
2021/11/09 05:29:56;;;;;;;;;;;;;;;;;;5017935;28;20011;-81
2021/11/09 05:32:21;;;;;;;;;;;;;;;;;;5051409;28;19917;-81
2021/11/09 05:34:47;;;;;;;;;;;;;;;;;;5034720;28;19919;-81
2021/11/09 05:37:14;;;;;;;;;;;;;;;;;;5051056;28;19912;-81
2021/11/09 05:39:54;;;;;;;;;;;;;;;;;;5017839;28;19916;-81
2021/11/09 05:42:19;;;;;;;;;;;;;;;;;;5050347;28;19924;-82
2021/11/09 05:44:45;;;;;;;;;;;;;;;;;;5050971;28;19916;-81
2021/11/09 05:47:10;;;;;;;;;;;;;;;;;;5050720;28;19959;-81
2021/11/09 05:49:36;;;;;;;;;;;;;;;;;;5050890;28;19948;-81
2021/11/09 05:52:01;;;;;;;;;;;;;;;;;;5033763;28;19962;-81
2021/11/09 05:54:27;;;;;;;;;;;;;;;;;;5017588;28;19912;-81
2021/11/09 05:56:52;;;;;;;;;;;;;;;;;;5050351;28;19913;-80
2021/11/09 05:59:18;;;;;;;;;;;;;;;;;;5050041;28;20015;-81
2021/11/09 06:01:43;;;;;;;;;;;;;;;;;;5034293;28;19920;-79
2021/11/09 06:04:09;;;;;;;;;;;;;;;;;;5050949;28;19948;-77
2021/11/09 06:06:34;;;;;;;;;;;;;;;;;;5050667;28;19917;-78
2021/11/09 06:08:59;;;;;;;;;;;;;;;;;;5050137;28;19920;-78
2021/11/09 06:11:25;;;;;;;;;;;;;;;;;;5034457;28;19924;-78
2021/11/09 06:13:50;;;;;;;;;;;;;;;;;;5034171;28;19913;-79
2021/11/09 06:16:15;;;;;;;;;;;;;;;;;;5050955;28;19948;-81
2021/11/09 06:18:40;;;;;;;;;;;;;;;;;;5034627;28;19969;-80
2021/11/09 06:21:06;;;;;;;;;;;;;;;;;;5050687;28;20011;-79
2021/11/09 06:23:31;;;;;;;;;;;;;;;;;;5049157;28;19921;-80
2021/11/09 06:25:57;;;;;;;;;;;;;;;;;;5048285;28;20286;-80
2021/11/09 06:28:22;;;;;;;;;;;;;;;;;;5047371;28;20017;-80
2021/11/09 06:30:48;;;;;;;;;;;;;;;;;;5049444;28;19921;-80
2021/11/09 06:33:13;;;;;;;;;;;;;;;;;;5017432;28;20428;-80
2021/11/09 06:35:39;;;;;;;;;;;;;;;;;;5050623;28;19913;-79
2021/11/09 06:38:04;;;;;;;;;;;;;;;;;;5049934;28;19917;-81
2021/11/09 06:40:30;;;;;;;;;;;;;;;;;;5050616;28;19916;-80
2021/11/09 06:42:56;;;;;;;;;;;;;;;;;;5030457;28;19913;-81
2021/11/09 06:45:21;;;;;;;;;;;;;;;;;;5013913;28;19919;-81
2021/11/09 06:47:48;;;;;;;;;;;;;;;;;;5022410;28;20387;-81
2021/11/09 06:50:13;;;;;;;;;;;;;;;;;;5029268;28;19917;-81
2021/11/09 06:52:39;;;;;;;;;;;;;;;;;;5015639;28;19967;-81
2021/11/09 06:55:04;;;;;;;;;;;;;;;;;;5050222;28;19956;-81
2021/11/09 06:57:30;;;;;;;;;;;;;;;;;;5049858;28;19921;-81
2021/11/09 06:59:55;;;;;;;;;;;;;;;;;;5033480;28;20374;-81
2021/11/09 07:02:20;;;;;;;;;;;;;;;;;;5050208;28;19964;-81
2021/11/09 07:04:46;;;;;;;;;;;;;;;;;;5034892;28;20290;-79
2021/11/09 07:07:11;;;;;;;;;;;;;;;;;;5034044;28;19916;-79
2021/11/09 07:09:37;;;;;;;;;;;;;;;;;;5051448;28;19989;-81
2021/11/09 07:12:02;;;;;;;;;;;;;;;;;;5053578;28;19913;-81
2021/11/09 07:14:28;;;;;;;;;;;;;;;;;;5019203;28;19917;-81
2021/11/09 07:16:53;;;;;;;;;;;;;;;;;;5036736;28;19912;-81
2021/11/09 07:19:19;;;;;;;;;;;;;;;;;;5053527;28;19923;-81
2021/11/09 07:21:45;;;;;;;;;;;;;;;;;;5030482;28;20032;-80
2021/11/09 07:24:11;;;;;;;;;;;;;;;;;;5017384;28;19913;-81
2021/11/09 07:26:36;;;;;;;;;;;;;;;;;;5048588;28;19923;-79
2021/11/09 07:29:02;;;;;;;;;;;;;;;;;;5036690;28;20355;-79
2021/11/09 07:31:28;;;;;;;;;;;;;;;;;;5019805;28;20010;-81
2021/11/09 07:33:53;;;;;;;;;;;;;;;;;;5020221;28;19920;-83
2021/11/09 07:36:19;;;;;;;;;;;;;;;;;;5019845;28;19919;-82
2021/11/09 07:38:44;;;;;;;;;;;;;;;;;;5019797;28;20347;-83
2021/11/09 07:41:10;;;;;;;;;;;;;;;;;;5033107;28;19940;-83
2021/11/09 07:43:35;;;;;;;;;;;;;;;;;;5029575;28;19927;-83
2021/11/09 07:46:00;;;;;;;;;;;;;;;;;;5033070;28;20329;-83
2021/11/09 07:48:26;;;;;;;;;;;;;;;;;;5016907;28;20015;-83
2021/11/09 07:50:51;;;;;;;;;;;;;;;;;;5019416;28;19916;-82
2021/11/09 07:53:18;;;;;;;;;;;;;;;;;;5036302;28;19913;-82
2021/11/09 07:55:52;;;;;;;;;;;;;;;;;;5053413;28;19961;-82
2021/11/09 07:58:29;;;;;;;;;;;;;;;;;;5051981;28;19916;-82
2021/11/09 08:01:01;;;;;;;;;;;;;;;;;;5028319;28;19917;-82
2021/11/09 08:03:35;;;;;;;;;;;;;;;;;;5020377;28;19928;-82
2021/11/09 08:08:39;;;;;;;;;;;;;;;;;;5052673;28;19976;-82
2021/11/09 08:11:04;;;;;;;;;;;;;;;;;;5052499;28;19913;-82
2021/11/09 08:13:29;;;;;;;;;;;;;;;;;;5019288;28;19923;-82
2021/11/09 08:15:55;;;;;;;;;;;;;;;;;;5019060;28;19995;-82
2021/11/09 08:18:20;;;;;;;;;;;;;;;;;;5035596;28;19920;-82
2021/11/09 08:20:45;;;;;;;;;;;;;;;;;;5035372;28;19913;-82
2021/11/09 08:23:11;;;;;;;;;;;;;;;;;;5034251;28;19913;-81
2021/11/09 08:25:36;;;;;;;;;;;;;;;;;;5033905;28;20335;-82
2021/11/09 08:28:02;;;;;;;;;;;;;;;;;;5035193;28;19919;-82
2021/11/09 08:30:27;;;;;;;;;;;;;;;;;;5035437;28;19919;-82
2021/11/09 08:32:53;;;;;;;;;;;;;;;;;;5035228;28;19921;-82
2021/11/09 08:35:23;;;;;;;;;;;;;;;;;;5017898;28;20019;-81
2021/11/09 08:37:51;;;;;;;;;;;;;;;;;;5030108;28;19991;-81
2021/11/09 08:40:19;;;;;;;;;;;;;;;;;;5014114;28;19960;-81
2021/11/09 08:42:48;;;;;;;;;;;;;;;;;;5048745;28;20606;-81
2021/11/09 08:47:49;;;;;;;;;;;;;;;;;;5052015;28;19916;-81
2021/11/09 08:50:15;;;;;;;;;;;;;;;;;;5051841;28;19920;-82
2021/11/09 08:52:42;;;;;;;;;;;;;;;;;;5018694;28;19958;-82
2021/11/09 09:05:48;;;;;;;;;;;;;;;;;;5051929;28;20378;-82
2021/11/09 09:08:13;;;;;;;;;;;;;;;;;;5018531;28;19958;-83
2021/11/09 09:10:39;;;;;;;;;;;;;;;;;;5018367;28;19912;-82
2021/11/09 09:13:04;;;;;;;;;;;;;;;;;;5018197;28;19920;-83
2021/11/09 09:15:30;;;;;;;;;;;;;;;;;;5018533;28;20007;-84
2021/11/09 09:17:56;;;;;;;;;;;;;;;;;;5018347;28;20015;-84
2021/11/09 09:20:27;;;;;;;;;;;;;;;;;;5034904;28;19955;-84
2021/11/09 09:23:02;;;;;;;;;;;;;;;;;;5018905;28;19912;-84
2021/11/09 09:30:55;;;;;;;;;;;;;;;;;;5051316;28;19917;-84
2021/11/09 09:52:54;;;;;;;;;;;;;;;;;;5051762;28;19977;-84
2021/11/09 09:55:37;;;;;;;;;;;;;;;;;;5049545;28;19924;-85
2021/11/09 09:57:52;;;;;;;;;;;;;;;;;;5036280;28;20362;-85
2021/11/09 10:00:17;;;;;;;;;;;;;;;;;;5034154;28;19940;-85
2021/11/09 10:02:50;;;;;;;;;;;;;;;;;;5017986;28;19975;-85
2021/11/09 10:05:16;;;;;;;;;;;;;;;;;;5017995;28;19917;-85
2021/11/09 10:07:42;;;;;;;;;;;;;;;;;;5017909;28;19962;-85
2021/11/09 10:10:10;;;;;;;;;;;;;;;;;;5017802;28;19913;-85
2021/11/09 10:12:36;;;;;;;;;;;;;;;;;;5033664;28;19917;-85
2021/11/09 10:15:06;;;;;;;;;;;;;;;;;;5017295;28;19962;-84
2021/11/09 10:17:33;;;;;;;;;;;;;;;;;;5017892;28;19985;-84
2021/11/09 10:19:59;;;;;;;;;;;;;;;;;;5016953;28;19916;-84
2021/11/09 10:22:24;;;;;;;;;;;;;;;;;;5017215;28;19940;-84
2021/11/09 10:24:52;;;;;;;;;;;;;;;;;;5034088;28;20341;-84
2021/11/09 10:27:18;;;;;;;;;;;;;;;;;;5033097;28;19956;-84
2021/11/09 10:29:44;;;;;;;;;;;;;;;;;;5033544;28;20428;-83
2021/11/09 10:32:13;;;;;;;;;;;;;;;;;;5043174;28;19921;-82
2021/11/09 10:34:40;;;;;;;;;;;;;;;;;;5013937;28;19921;-82
2021/11/09 10:37:12;;;;;;;;;;;;;;;;;;5013290;28;19921;-83
2021/11/09 10:39:37;;;;;;;;;;;;;;;;;;5050808;28;19931;-81
2021/11/09 10:42:22;;;;;;;;;;;;;;;;;;5048072;28;19916;-80
2021/11/09 10:44:58;;;;;;;;;;;;;;;;;;5037223;28;19920;-81
2021/11/09 10:47:27;;;;;;;;;;;;;;;;;;5033598;28;19923;-80
2021/11/09 10:49:54;;;;;;;;;;;;;;;;;;5033338;28;19923;-81
2021/11/09 10:52:26;;;;;;;;;;;;;;;;;;5020995;28;19912;-80
2021/11/09 10:54:57;;;;;;;;;;;;;;;;;;5048404;28;19939;-81
2021/11/09 10:57:29;;;;;;;;;;;;;;;;;;5025770;28;20286;-81
2021/11/09 11:03:27;;;;;;;;;;;;;;;;;;5053604;28;19928;-80
2021/11/09 11:05:20;;;;;;;;;;;;;;;;;;5042369;28;20387;-81
2021/11/09 11:07:52;;;;;;;;;;;;;;;;;;5049520;28;19917;-81
2021/11/09 11:10:25;;;;;;;;;;;;;;;;;;5060976;28;19956;-81
2021/11/09 11:12:50;;;;;;;;;;;;;;;;;;5035364;28;20410;-81
2021/11/09 11:15:15;;;;;;;;;;;;;;;;;;5036881;28;19944;-81
2021/11/09 11:17:42;;;;;;;;;;;;;;;;;;5053404;28;19999;-81
2021/11/09 11:20:08;;;;;;;;;;;;;;;;;;5053385;28;19913;-81
2021/11/09 11:22:33;;;;;;;;;;;;;;;;;;5036435;28;19952;-81
2021/11/09 11:24:59;;;;;;;;;;;;;;;;;;5027378;28;19923;-82
2021/11/09 11:27:26;;;;;;;;;;;;;;;;;;5048537;28;20619;-82
2021/11/09 11:29:51;;;;;;;;;;;;;;;;;;5052361;28;20294;-82
2021/11/09 11:32:21;;;;;;;;;;;;;;;;;;5052801;28;19927;-82
2021/11/09 11:34:46;;;;;;;;;;;;;;;;;;5052469;28;19917;-82
2021/11/09 11:37:12;;;;;;;;;;;;;;;;;;5020210;28;19970;-82
2021/11/09 11:39:37;;;;;;;;;;;;;;;;;;5030329;28;19956;-83
2021/11/09 11:42:07;;;;;;;;;;;;;;;;;;5018113;28;19917;-82
2021/11/09 11:44:33;;;;;;;;;;;;;;;;;;5036105;28;20022;-82
2021/11/09 11:46:59;;;;;;;;;;;;;;;;;;5016165;28;20478;-83
2021/11/09 11:49:45;;;;;;;;;;;;;;;;;;5035317;28;19917;-83
2021/11/09 11:52:17;;;;;;;;;;;;;;;;;;5052687;28;20354;-82
2021/11/09 11:54:53;;;;;;;;;;;;;;;;;;5031426;28;19917;-82
2021/11/09 11:57:29;;;;;;;;;;;;;;;;;;5031413;28;19921;-82
2021/11/09 11:59:55;;;;;;;;;;;;;;;;;;5052212;28;19926;-83
2021/11/09 12:02:36;;;;;;;;;;;;;;;;;;5052404;28;19925;-83
2021/11/09 12:05:02;;;;;;;;;;;;;;;;;;5019384;28;20378;-83
2021/11/09 12:07:46;;;;;;;;;;;;;;;;;;5050822;28;19977;-82
2021/11/09 12:10:12;;;;;;;;;;;;;;;;;;5052240;28;19959;-83
2021/11/09 12:12:37;;;;;;;;;;;;;;;;;;5019053;28;19944;-83
2021/11/09 12:15:06;;;;;;;;;;;;;;;;;;5018857;28;19920;-83
2021/11/09 12:17:36;;;;;;;;;;;;;;;;;;5018662;28;20003;-84
2021/11/09 12:20:09;;;;;;;;;;;;;;;;;;5035981;28;20333;-88
2021/11/09 12:22:39;;;;;;;;;;;;;;;;;;5020522;28;20371;-84
2021/11/09 12:25:16;;;;;;;;;;;;;;;;;;5051893;28;19912;-85
2021/11/09 12:27:57;;;;;;;;;;;;;;;;;;5019246;28;19920;-85
2021/11/09 12:30:38;;;;;;;;;;;;;;;;;;5052060;28;19917;-84
2021/11/09 12:33:23;;;;;;;;;;;;;;;;;;5052115;28;20294;-82
2021/11/09 12:35:58;;;;;;;;;;;;;;;;;;5034940;28;19975;-83
2021/11/09 12:38:30;;;;;;;;;;;;;;;;;;5052057;28;19913;-83
2021/11/09 12:40:57;;;;;;;;;;;;;;;;;;5034214;28;19986;-82
2021/11/09 12:43:31;;;;;;;;;;;;;;;;;;5018762;28;20289;-82
2021/11/09 12:46:08;;;;;;;;;;;;;;;;;;5052076;28;19948;-82
2021/11/09 12:48:35;;;;;;;;;;;;;;;;;;5019028;28;20007;-83
2021/11/09 12:51:04;;;;;;;;;;;;;;;;;;5018824;28;19924;-82
2021/11/09 12:53:29;;;;;;;;;;;;;;;;;;5034837;28;19923;-83
2021/11/09 12:55:55;;;;;;;;;;;;;;;;;;5034967;28;20023;-83
2021/11/09 12:58:22;;;;;;;;;;;;;;;;;;5034287;28;20276;-83
2021/11/09 13:09:35;;;;;;;;;;;;;;;;;;5051250;28;19913;-82
2021/11/09 13:12:03;;;;;;;;;;;;;;;;;;5018240;28;19939;-83
2021/11/09 13:14:40;;;;;;;;;;;;;;;;;;5018478;28;19913;-83
2021/11/09 13:17:16;;;;;;;;;;;;;;;;;;5051477;28;19917;-82
2021/11/09 13:19:43;;;;;;;;;;;;;;;;;;5034996;28;19936;-83
2021/11/09 13:22:12;;;;;;;;;;;;;;;;;;5018336;28;20069;-84
2021/11/09 13:24:42;;;;;;;;;;;;;;;;;;5051377;28;19913;-82
2021/11/09 13:27:08;;;;;;;;;;;;;;;;;;5017620;28;20016;-82
2021/11/09 13:29:44;;;;;;;;;;;;;;;;;;5018150;28;19913;-83
2021/11/09 13:32:10;;;;;;;;;;;;;;;;;;5034865;28;19920;-83
2021/11/09 13:34:35;;;;;;;;;;;;;;;;;;5034795;28;20330;-83
2021/11/09 13:37:00;;;;;;;;;;;;;;;;;;5017868;28;20349;-82
2021/11/09 13:39:26;;;;;;;;;;;;;;;;;;5018172;28;19919;-83
2021/11/09 13:41:51;;;;;;;;;;;;;;;;;;5014651;28;20015;-83
2021/11/09 13:44:16;;;;;;;;;;;;;;;;;;5014860;28;19956;-83
2021/11/09 13:46:42;;;;;;;;;;;;;;;;;;5037001;28;19913;-84
2021/11/09 13:49:10;;;;;;;;;;;;;;;;;;5031190;28;19917;-82
2021/11/09 13:51:47;;;;;;;;;;;;;;;;;;5014460;28;20016;-84
2021/11/09 13:54:18;;;;;;;;;;;;;;;;;;5032526;28;19948;-83
2021/11/09 13:56:46;;;;;;;;;;;;;;;;;;5016769;28;19913;-82
2021/11/09 13:59:11;;;;;;;;;;;;;;;;;;5017617;28;19913;-82
2021/11/09 14:14:52;;;;;;;;;;;;;;;;;;5038829;28;19912;-82
2021/11/09 14:17:18;;;;;;;;;;;;;;;;;;5023844;28;19948;-83
2021/11/09 14:19:43;;;;;;;;;;;;;;;;;;5038494;28;20386;-82
2021/11/09 14:22:11;;;;;;;;;;;;;;;;;;5037987;28;20383;-82
2021/11/09 14:24:37;;;;;;;;;;;;;;;;;;5054628;28;19912;-82
2021/11/09 14:27:04;;;;;;;;;;;;;;;;;;5037761;28;19920;-82
2021/11/09 14:29:33;;;;;;;;;;;;;;;;;;5038060;28;20007;-82
2021/11/09 14:32:01;;;;;;;;;;;;;;;;;;5054716;28;19928;-83
2021/11/09 14:34:27;;;;;;;;;;;;;;;;;;5037148;28;20262;-82
2021/11/09 14:36:54;;;;;;;;;;;;;;;;;;5019514;28;19935;-83
2021/11/09 14:39:24;;;;;;;;;;;;;;;;;;5036823;28;19916;-82
2021/11/09 14:42:27;;;;;;;;;;;;;;;;;;5033766;28;19923;-83
2021/11/09 14:45:20;;;;;;;;;;;;;;;;;;5033851;28;19913;-83
2021/11/09 14:47:53;;;;;;;;;;;;;;;;;;5053591;28;19939;-83
2021/11/09 14:53:06;;;;;;;;;;;;;;;;;;5053937;28;19921;-83
2021/11/09 14:55:49;;;;;;;;;;;;;;;;;;5054139;28;19913;-83
2021/11/09 14:58:25;;;;;;;;;;;;;;;;;;5030043;28;19913;-83
2021/11/09 15:00:50;;;;;;;;;;;;;;;;;;5017463;28;19921;-84
2021/11/09 15:03:16;;;;;;;;;;;;;;;;;;5017400;28;19927;-84
2021/11/09 15:05:42;;;;;;;;;;;;;;;;;;5036631;28;19971;-84
2021/11/09 15:13:32;;;;;;;;;;;;;;;;;;5053247;28;19924;-84
2021/11/09 15:32:14;;;;;;;;;;;;;;;;;;5050321;28;20279;-83
2021/11/09 15:39:51;;;;;;;;;;;;;;;;;;5053538;28;19921;-83
2021/11/09 15:42:17;;;;;;;;;;;;;;;;;;5046047;28;19917;-84
2021/11/09 15:44:42;;;;;;;;;;;;;;;;;;5016352;28;20016;-84
2021/11/09 15:47:07;;;;;;;;;;;;;;;;;;5033804;28;19917;-84
2021/11/09 15:49:33;;;;;;;;;;;;;;;;;;5035379;28;20286;-83
2021/11/09 15:51:59;;;;;;;;;;;;;;;;;;5043583;28;19986;-84
2021/11/09 15:54:24;;;;;;;;;;;;;;;;;;5037344;28;19970;-85
2021/11/09 15:56:50;;;;;;;;;;;;;;;;;;5019385;28;19987;-84
2021/11/09 15:59:15;;;;;;;;;;;;;;;;;;5019560;28;19917;-84
2021/11/09 16:01:41;;;;;;;;;;;;;;;;;;5032691;28;19921;-84
2021/11/09 16:04:11;;;;;;;;;;;;;;;;;;5033291;28;19947;-87
2021/11/09 16:06:37;;;;;;;;;;;;;;;;;;5033730;28;19920;-84
2021/11/09 16:09:04;;;;;;;;;;;;;;;;;;5016798;28;19913;-84
2021/11/09 16:11:33;;;;;;;;;;;;;;;;;;5019472;28;19986;-86
2021/11/09 16:13:59;;;;;;;;;;;;;;;;;;5020105;28;19921;-87
2021/11/09 16:16:24;;;;;;;;;;;;;;;;;;5052317;28;20406;-86
2021/11/09 16:18:49;;;;;;;;;;;;;;;;;;5053359;28;19919;-86
2021/11/09 16:21:15;;;;;;;;;;;;;;;;;;5055637;28;20382;-84
2021/11/09 16:23:40;;;;;;;;;;;;;;;;;;5052301;28;19921;-85
2021/11/09 16:26:06;;;;;;;;;;;;;;;;;;5049085;28;19974;-86
2021/11/09 16:28:32;;;;;;;;;;;;;;;;;;5016302;28;19917;-86
2021/11/09 16:30:59;;;;;;;;;;;;;;;;;;5025372;28;19982;-86
2021/11/09 16:33:34;;;;;;;;;;;;;;;;;;5016341;28;19925;-87
2021/11/09 16:36:11;;;;;;;;;;;;;;;;;;5017378;28;19917;-86
2021/11/09 16:38:43;;;;;;;;;;;;;;;;;;5017731;28;19921;-87
2021/11/09 16:41:12;;;;;;;;;;;;;;;;;;5019778;28;19916;-87
2021/11/09 16:43:42;;;;;;;;;;;;;;;;;;5035833;28;20333;-86
2021/11/09 16:48:50;;;;;;;;;;;;;;;;;;5052497;28;19990;-86
2021/11/09 16:51:21;;;;;;;;;;;;;;;;;;5052424;28;19920;-86
2021/11/09 16:53:53;;;;;;;;;;;;;;;;;;5052510;28;19935;-87
2021/11/09 17:01:27;;;;;;;;;;;;;;;;;;5051412;28;20375;-85
2021/11/09 17:06:39;;;;;;;;;;;;;;;;;;5051834;28;19916;-85
2021/11/09 18:22:32;;;;;;;;;;;;;;;;;;5035829;28;20019;-88
2021/11/09 18:24:58;;;;;;;;;;;;;;;;;;5035839;28;19975;-91
2021/11/09 18:27:27;;;;;;;;;;;;;;;;;;5018805;28;20359;-91
2021/11/09 18:29:53;;;;;;;;;;;;;;;;;;5018923;28;19913;-93
2021/11/09 18:32:19;;;;;;;;;;;;;;;;;;5019217;28;20351;-92
2021/11/09 18:34:53;;;;;;;;;;;;;;;;;;5019389;28;20007;-90
2021/11/09 18:37:20;;;;;;;;;;;;;;;;;;5018863;28;19920;-89
2021/11/09 18:39:47;;;;;;;;;;;;;;;;;;5018948;28;20035;-89
2021/11/09 18:42:14;;;;;;;;;;;;;;;;;;5018509;28;19917;-90
2021/11/09 18:44:40;;;;;;;;;;;;;;;;;;5018880;28;19920;-89
2021/11/09 18:47:11;;;;;;;;;;;;;;;;;;5018764;28;20282;-90
2021/11/09 18:49:38;;;;;;;;;;;;;;;;;;5018750;28;20428;-90
2021/11/09 18:52:06;;;;;;;;;;;;;;;;;;5035377;28;20386;-89
2021/11/09 18:54:34;;;;;;;;;;;;;;;;;;5018931;28;20436;-91
2021/11/09 18:57:03;;;;;;;;;;;;;;;;;;5034786;28;19967;-90
2021/11/09 18:59:31;;;;;;;;;;;;;;;;;;5037932;28;19917;-90
2021/11/09 19:01:59;;;;;;;;;;;;;;;;;;5022596;28;20426;-90
2021/11/09 19:04:28;;;;;;;;;;;;;;;;;;5038792;28;19912;-88
2021/11/09 19:06:53;;;;;;;;;;;;;;;;;;5038550;28;19913;-86
2021/11/09 19:09:19;;;;;;;;;;;;;;;;;;5020980;28;19928;-86
2021/11/09 19:11:45;;;;;;;;;;;;;;;;;;5037223;28;20333;-86
2021/11/09 19:14:12;;;;;;;;;;;;;;;;;;5037260;28;20378;-85
2021/11/09 19:16:37;;;;;;;;;;;;;;;;;;5020751;28;20367;-84
2021/11/09 19:19:02;;;;;;;;;;;;;;;;;;5020599;28;19913;-84
2021/11/09 19:21:28;;;;;;;;;;;;;;;;;;5020775;28;19912;-85
2021/11/09 19:23:53;;;;;;;;;;;;;;;;;;5020636;28;19912;-85
2021/11/09 19:26:19;;;;;;;;;;;;;;;;;;5020049;28;19931;-85
2021/11/09 19:28:47;;;;;;;;;;;;;;;;;;5019768;28;19966;-84
2021/11/09 19:31:13;;;;;;;;;;;;;;;;;;5019361;28;19913;-85
2021/11/09 19:33:39;;;;;;;;;;;;;;;;;;5036497;28;19919;-84
2021/11/09 19:36:04;;;;;;;;;;;;;;;;;;5020557;28;19913;-84
2021/11/09 19:38:30;;;;;;;;;;;;;;;;;;5017600;28;20285;-84
2021/11/09 19:40:55;;;;;;;;;;;;;;;;;;5017587;28;19923;-83
2021/11/09 19:43:20;;;;;;;;;;;;;;;;;;5018186;28;20003;-83
2021/11/09 19:45:46;;;;;;;;;;;;;;;;;;5020026;28;19917;-83
2021/11/09 19:48:11;;;;;;;;;;;;;;;;;;5020020;28;19912;-83
2021/11/09 19:50:37;;;;;;;;;;;;;;;;;;5020147;28;19923;-84
2021/11/09 19:53:06;;;;;;;;;;;;;;;;;;5036748;28;19913;-85
2021/11/09 19:55:34;;;;;;;;;;;;;;;;;;5019806;28;20452;-82
2021/11/09 19:58:00;;;;;;;;;;;;;;;;;;5025151;28;19948;-83
2021/11/09 20:00:27;;;;;;;;;;;;;;;;;;5016657;28;19913;-82
2021/11/09 20:02:54;;;;;;;;;;;;;;;;;;5033253;28;19913;-82
2021/11/09 20:05:20;;;;;;;;;;;;;;;;;;5033314;28;19921;-82
2021/11/09 20:07:46;;;;;;;;;;;;;;;;;;5032748;28;19913;-82
2021/11/09 20:10:12;;;;;;;;;;;;;;;;;;5032055;28;19927;-83
2021/11/09 20:12:38;;;;;;;;;;;;;;;;;;5035976;28;19916;-82
2021/11/09 20:15:09;;;;;;;;;;;;;;;;;;5019717;28;19952;-82
2021/11/09 20:17:34;;;;;;;;;;;;;;;;;;5020327;28;20367;-82
2021/11/09 20:20:01;;;;;;;;;;;;;;;;;;5036027;28;19913;-82
2021/11/09 20:22:26;;;;;;;;;;;;;;;;;;5036034;28;19928;-81
2021/11/09 20:24:52;;;;;;;;;;;;;;;;;;5035720;28;19914;-84
2021/11/09 20:27:20;;;;;;;;;;;;;;;;;;5019214;28;19917;-84
2021/11/09 20:29:46;;;;;;;;;;;;;;;;;;5035660;28;19963;-84
2021/11/09 20:32:13;;;;;;;;;;;;;;;;;;5035889;28;20281;-84
2021/11/09 20:34:38;;;;;;;;;;;;;;;;;;5036054;28;20007;-84
2021/11/09 20:37:03;;;;;;;;;;;;;;;;;;5035733;28;20332;-84
2021/11/09 20:39:29;;;;;;;;;;;;;;;;;;5035231;28;19924;-85
2021/11/09 20:41:54;;;;;;;;;;;;;;;;;;5051944;28;20004;-84
2021/11/09 20:44:21;;;;;;;;;;;;;;;;;;5035755;28;19923;-85
2021/11/09 20:46:46;;;;;;;;;;;;;;;;;;5019210;28;19917;-84
2021/11/09 20:49:12;;;;;;;;;;;;;;;;;;5052180;28;19919;-84
2021/11/09 20:51:39;;;;;;;;;;;;;;;;;;5034533;28;19921;-84
2021/11/09 20:54:05;;;;;;;;;;;;;;;;;;5019044;28;19963;-87
2021/11/09 20:56:32;;;;;;;;;;;;;;;;;;5019037;28;20361;-86
2021/11/09 20:58:58;;;;;;;;;;;;;;;;;;5035121;28;19919;-84
2021/11/09 21:01:25;;;;;;;;;;;;;;;;;;5052559;28;19912;-84
2021/11/09 21:03:51;;;;;;;;;;;;;;;;;;5051940;28;19913;-84
2021/11/09 21:06:19;;;;;;;;;;;;;;;;;;5051276;28;19967;-84
2021/11/09 21:08:45;;;;;;;;;;;;;;;;;;5051442;28;20003;-84
2021/11/09 21:11:11;;;;;;;;;;;;;;;;;;5018715;28;20032;-84
2021/11/09 21:18:51;;;;;;;;;;;;;;;;;;5051450;28;19920;-86
2021/11/09 21:21:20;;;;;;;;;;;;;;;;;;5051232;28;20428;-87
2021/11/09 21:23:48;;;;;;;;;;;;;;;;;;5014786;28;19917;-81